Time;durP1;ratioP1;P1;durP2;ratioP2;P2;SDS_P1;SDS_P2;PMS_P1;PMS_P2;Temp;Humidity;BMP_temperature;BMP_pressure;BME280_temperature;BME280_humidity;BME280_pressure;Samples;Min_cycle;Max_cycle;Signal;HPM_P1;HPM_P2
2022/06/13 00:02:22;;;;;;;7.65;3.50;;;;;;;22.97;48.84;98171.00;5368583;26;20395;-79
2022/06/13 00:04:49;;;;;;;5.82;3.22;;;;;;;23.35;47.84;98162.16;5368554;26;20050;-78
2022/06/13 00:07:16;;;;;;;8.68;3.35;;;;;;;22.69;49.27;98163.91;5368038;26;20122;-78
2022/06/13 00:09:43;;;;;;;7.10;3.33;;;;;;;23.22;48.51;98160.84;5368334;26;20078;-78
2022/06/13 00:12:10;;;;;;;6.85;3.55;;;;;;;23.27;48.19;98159.41;5368354;26;20108;-79
2022/06/13 00:14:37;;;;;;;6.60;3.35;;;;;;;23.13;48.36;98153.78;5368535;26;20067;-78
2022/06/13 00:17:04;;;;;;;5.62;3.12;;;;;;;23.16;48.36;98156.13;5368475;26;20072;-79
2022/06/13 00:19:31;;;;;;;8.30;3.50;;;;;;;22.93;49.14;98147.72;5367749;26;20081;-78
2022/06/13 00:21:58;;;;;;;6.18;3.47;;;;;;;23.23;48.53;98138.78;5368375;26;20197;-79
2022/06/13 00:24:25;;;;;;;7.60;3.70;;;;;;;23.08;48.79;98144.53;5368461;26;20048;-79
2022/06/13 00:26:52;;;;;;;7.35;3.55;;;;;;;22.80;49.70;98143.53;5368035;26;20122;-78
2022/06/13 00:29:19;;;;;;;5.78;3.30;;;;;;;23.29;48.18;98136.44;5368286;26;20372;-78
2022/06/13 00:31:46;;;;;;;8.77;3.35;;;;;;;22.89;48.98;98138.47;5368553;26;20100;-78
2022/06/13 00:34:13;;;;;;;7.60;3.58;;;;;;;22.78;49.29;98136.78;5367921;26;20115;-78
2022/06/13 00:36:40;;;;;;;9.55;3.58;;;;;;;23.70;46.53;98136.16;5368333;26;20112;-78
2022/06/13 00:39:07;;;;;;;5.82;3.42;;;;;;;23.05;48.10;98136.88;5368089;26;20063;-78
2022/06/13 00:41:37;;;;;;;7.47;3.55;;;;;;;22.53;49.43;98130.25;5367912;26;20095;-79
2022/06/13 00:44:18;;;;;;;8.57;3.58;;;;;;;22.04;50.92;98128.53;5368272;26;20375;-79
2022/06/13 00:46:45;;;;;;;7.97;3.53;;;;;;;22.30;50.47;98131.50;5368197;26;20076;-79
2022/06/13 00:49:27;;;;;;;8.15;3.45;;;;;;;22.93;48.71;98127.50;5367620;26;20070;-78
2022/06/13 00:52:13;;;;;;;6.35;3.35;;;;;;;22.96;48.47;98136.91;5368139;26;20043;-78
2022/06/13 00:54:41;;;;;;;6.90;3.55;;;;;;;22.76;48.95;98126.41;5367906;26;20110;-79
2022/06/13 00:57:13;;;;;;;6.03;3.25;;;;;;;22.37;50.12;98119.47;5349197;26;20082;-78
2022/06/13 00:59:41;;;;;;;6.72;3.72;;;;;;;21.60;52.45;98115.72;5349145;26;20063;-79
2022/06/13 01:02:08;;;;;;;8.32;3.75;;;;;;;21.98;51.35;98118.56;5368849;26;20123;-78
2022/06/13 01:04:36;;;;;;;8.75;3.92;;;;;;;22.22;50.71;98117.25;5349407;26;20413;-79
2022/06/13 01:07:03;;;;;;;9.93;4.10;;;;;;;21.76;52.15;98111.72;5369221;26;20419;-78
2022/06/13 01:12:25;;;;;;;5.68;3.20;;;;;;;22.08;51.17;98103.69;5342715;26;20115;-79
2022/06/13 01:15:08;;;;;;;7.55;3.40;;;;;;;22.22;50.99;98101.50;5369016;26;20103;-78
2022/06/13 01:17:45;;;;;;;7.95;3.78;;;;;;;21.97;51.72;98098.50;5368622;26;20410;-78
2022/06/13 01:20:50;;;;;;;8.38;3.50;;;;;;;21.55;53.00;98088.19;5369200;26;20082;-78
2022/06/13 01:23:44;;;;;;;6.97;3.45;;;;;;;21.64;52.79;98096.09;5336403;26;20438;-79
2022/06/13 01:26:23;;;;;;;7.65;3.70;;;;;;;21.55;53.20;98093.44;5349341;26;20048;-78
2022/06/13 01:29:08;;;;;;;8.55;3.83;;;;;;;21.29;54.37;98098.31;5368973;26;20072;-78
2022/06/13 01:31:57;;;;;;;7.35;3.60;;;;;;;21.08;54.80;98090.44;5368894;26;20055;-78
2022/06/13 01:34:43;;;;;;;7.68;3.90;;;;;;;21.58;53.40;98088.72;5349351;26;20338;-78
2022/06/13 01:37:30;;;;;;;7.72;3.62;;;;;;;22.07;51.91;98099.38;5368692;26;20407;-78
2022/06/13 01:40:08;;;;;;;6.75;3.50;;;;;;;21.22;54.42;98082.22;5349150;26;20708;-78
2022/06/13 01:42:44;;;;;;;7.85;3.97;;;;;;;21.13;54.94;98088.25;5369093;26;20059;-78
2022/06/13 01:45:14;;;;;;;7.28;3.80;;;;;;;21.76;52.93;98088.09;5348908;26;20375;-78
2022/06/13 01:47:56;;;;;;;8.38;3.80;;;;;;;22.10;51.48;98088.59;5368619;26;20067;-78
2022/06/13 01:50:44;;;;;;;8.32;3.62;;;;;;;22.45;50.03;98082.81;5368864;26;20124;-78
2022/06/13 01:53:54;;;;;;;6.47;3.25;;;;;;;21.51;52.76;98094.66;5369031;26;20131;-78
2022/06/13 01:56:27;;;;;;;8.75;3.80;;;;;;;21.93;51.52;98093.53;5368986;26;20131;-78
2022/06/13 01:58:59;;;;;;;7.32;3.60;;;;;;;22.35;49.78;98092.50;5348544;26;20111;-78
2022/06/13 02:01:35;;;;;;;7.40;3.30;;;;;;;21.44;52.76;98090.91;5349187;26;20524;-78
2022/06/13 02:04:32;;;;;;;8.63;3.40;;;;;;;21.62;51.82;98087.50;5349041;26;20060;-78
2022/06/13 02:07:04;;;;;;;7.63;3.40;;;;;;;22.34;49.79;98090.84;5367437;26;20459;-78
2022/06/13 02:09:40;;;;;;;7.82;3.45;;;;;;;21.97;50.96;98088.00;5368657;26;20060;-78
2022/06/13 02:12:07;;;;;;;8.05;3.50;;;;;;;22.07;50.20;98089.72;5368600;26;20059;-78
2022/06/13 02:14:40;;;;;;;8.60;3.60;;;;;;;21.26;52.60;98082.81;5368994;26;20481;-78
2022/06/13 02:17:18;;;;;;;10.43;3.30;;;;;;;21.94;50.94;98089.13;5349139;26;20111;-78
2022/06/13 02:19:50;;;;;;;6.95;3.50;;;;;;;22.12;50.39;98090.16;5368530;26;20525;-78
2022/06/13 02:22:39;;;;;;;7.32;3.08;;;;;;;21.77;51.46;98087.13;5368982;26;20060;-78
2022/06/13 02:25:14;;;;;;;7.43;3.58;;;;;;;21.27;52.78;98082.69;5349247;26;20375;-78
2022/06/13 02:27:44;;;;;;;6.62;3.35;;;;;;;22.02;50.99;98094.53;5368439;26;20047;-78
2022/06/13 02:30:16;;;;;;;8.20;3.60;;;;;;;22.31;49.37;98091.94;5348986;26;20131;-78
2022/06/13 02:33:03;;;;;;;8.88;3.53;;;;;;;21.61;51.22;98090.28;5348620;26;20123;-78
2022/06/13 02:35:38;;;;;;;8.15;3.80;;;;;;;21.56;51.53;98080.16;5349322;26;20111;-78
2022/06/13 02:38:20;;;;;;;9.18;3.60;;;;;;;21.64;51.27;98088.22;5368726;26;20072;-78
2022/06/13 02:40:54;;;;;;;8.13;3.60;;;;;;;21.37;51.72;98078.31;5368550;26;20119;-78
2022/06/13 02:43:37;;;;;;;7.62;3.40;;;;;;;20.68;54.00;98069.34;5368808;26;20458;-78
2022/06/13 02:46:09;;;;;;;8.32;3.83;;;;;;;21.14;52.81;98078.56;5368928;26;20063;-78
2022/06/13 02:48:43;;;;;;;9.20;3.87;;;;;;;20.23;55.43;98073.00;5368301;26;20477;-78
2022/06/13 02:51:30;;;;;;;8.48;3.50;;;;;;;20.81;53.46;98077.84;5368502;26;20412;-78
2022/06/13 02:54:01;;;;;;;7.32;3.70;;;;;;;20.76;53.91;98069.56;5368491;26;20060;-78
2022/06/13 02:56:37;;;;;;;7.37;3.60;;;;;;;20.88;53.60;98070.31;5368920;26;20122;-78
2022/06/13 02:59:25;;;;;;;10.43;3.45;;;;;;;21.11;52.45;98077.06;5348658;26;20110;-78
2022/06/13 03:01:54;;;;;;;7.85;3.53;;;;;;;20.42;54.53;98079.38;5368301;26;20103;-78
2022/06/13 03:04:32;;;;;;;6.57;3.50;;;;;;;19.99;55.68;98080.25;5368638;26;20060;-78
2022/06/13 03:07:07;;;;;;;7.00;3.50;;;;;;;19.77;56.97;98077.66;5369024;26;20078;-78
2022/06/13 03:09:51;;;;;;;8.30;4.03;;;;;;;19.43;58.37;98071.59;5348396;26;20055;-78
2022/06/13 03:12:22;;;;;;;8.90;3.90;;;;;;;19.02;60.27;98067.78;5349101;26;20063;-78
2022/06/13 03:14:56;;;;;;;11.85;4.20;;;;;;;18.36;62.58;98080.56;5368475;26;20087;-79
2022/06/13 03:17:54;;;;;;;7.50;3.50;;;;;;;18.76;61.01;98078.47;5348808;26;20115;-78
2022/06/13 03:20:30;;;;;;;10.77;4.22;;;;;;;19.26;59.34;98078.16;5312263;26;20138;-78
2022/06/13 03:23:10;;;;;;;8.23;3.85;;;;;;;19.30;59.73;98066.50;5348357;26;20111;-79
2022/06/13 03:25:50;;;;;;;8.30;4.15;;;;;;;20.01;58.27;98073.09;5349195;26;20098;-78
2022/06/13 03:28:37;;;;;;;7.55;3.90;;;;;;;20.24;57.71;98071.22;5348651;26;20122;-78
2022/06/13 03:31:08;;;;;;;9.48;4.07;;;;;;;20.13;58.04;98069.47;5368701;26;20058;-78
2022/06/13 03:33:41;;;;;;;7.93;4.10;;;;;;;20.06;58.79;98070.91;5368859;26;20534;-79
2022/06/13 03:36:08;;;;;;;8.43;3.87;;;;;;;20.97;55.73;98072.16;5348581;26;20075;-78
2022/06/13 03:38:41;;;;;;;7.80;3.60;;;;;;;20.97;56.04;98072.16;5368428;26;20530;-79
2022/06/13 03:41:12;;;;;;;6.65;3.50;;;;;;;21.45;55.43;98069.75;5348839;26;20107;-79
2022/06/13 03:44:15;;;;;;;10.02;3.70;;;;;;;22.14;53.30;98080.31;5368259;26;20039;-79
2022/06/13 03:46:54;;;;;;;7.43;3.58;;;;;;;23.41;49.37;98073.91;5259483;27;20752;-79
2022/06/13 03:49:33;;;;;;;9.52;3.40;;;;;;;24.45;46.52;98061.19;5339230;26;20087;-79
2022/06/13 03:52:02;;;;;;;6.57;3.50;;;;;;;25.26;43.56;98072.31;5366643;26;20409;-79
2022/06/13 03:54:47;;;;;;;8.63;3.55;;;;;;;26.28;40.91;98075.81;5347077;26;20107;-79
2022/06/13 03:57:28;;;;;;;6.97;3.10;;;;;;;26.46;40.43;98072.03;5346695;26;20119;-79
2022/06/13 04:00:08;;;;;;;6.32;3.42;;;;;;;26.65;39.96;98081.44;5346986;26;20131;-79
2022/06/13 04:02:37;;;;;;;5.57;3.10;;;;;;;27.43;38.78;98077.34;5347322;26;20048;-79
2022/06/13 04:05:05;;;;;;;6.10;3.37;;;;;;;27.18;38.88;98079.25;5346402;26;20052;-78
2022/06/13 04:07:36;;;;;;;5.97;3.30;;;;;;;26.99;39.23;98075.94;5366751;26;20070;-79
2022/06/13 04:10:06;;;;;;;6.28;3.20;;;;;;;27.22;39.04;98076.12;5366836;26;20725;-79
2022/06/13 04:13:11;;;;;;;8.23;3.58;;;;;;;27.44;38.57;98071.09;5366506;26;20112;-79
2022/06/13 04:15:56;;;;;;;8.93;3.90;;;;;;;27.75;38.55;98071.09;5366994;26;20102;-79
2022/06/13 04:18:45;;;;;;;5.85;3.10;;;;;;;29.05;36.50;98073.66;5366252;26;20686;-79
2022/06/13 04:21:49;;;;;;;7.07;3.28;;;;;;;29.87;35.12;98068.19;5366944;26;20104;-79
2022/06/13 04:24:29;;;;;;;6.87;3.05;;;;;;;30.64;32.69;98077.44;5366786;26;20060;-79
2022/06/13 04:27:06;;;;;;;7.72;3.20;;;;;;;30.87;32.80;98080.69;5366606;26;20079;-79
2022/06/13 04:30:01;;;;;;;8.10;3.22;;;;;;;30.47;33.98;98077.66;5366520;26;20356;-78
2022/06/13 04:32:47;;;;;;;6.45;3.65;;;;;;;30.91;33.44;98079.28;5348177;26;20068;-79
2022/06/13 04:35:15;;;;;;;6.77;3.27;;;;;;;31.29;33.08;98076.28;5348594;26;20076;-79
2022/06/13 04:37:43;;;;;;;9.13;3.42;;;;;;;31.65;32.57;98074.19;5348207;26;20067;-79
2022/06/13 04:40:14;;;;;;;9.07;3.50;;;;;;;32.35;32.09;98077.53;5367991;26;20116;-79
2022/06/13 04:42:42;;;;;;;6.30;3.40;;;;;;;32.95;30.54;98086.38;5348522;26;20083;-79
2022/06/13 04:45:29;;;;;;;7.07;3.25;;;;;;;33.62;29.59;98085.25;5348169;26;20093;-79
2022/06/13 04:47:57;;;;;;;8.77;3.33;;;;;;;34.53;28.44;98089.53;5347801;26;20068;-79
2022/06/13 04:50:37;;;;;;;7.05;3.08;;;;;;;34.76;28.74;98089.75;5357296;26;297073;-79
2022/06/13 04:53:06;;;;;;;7.90;3.12;;;;;;;35.17;28.33;98082.19;5368892;26;20090;-79
2022/06/13 04:55:43;;;;;;;6.55;2.70;;;;;;;35.88;27.54;98081.63;5349840;26;20058;-79
2022/06/13 04:58:19;;;;;;;8.07;3.08;;;;;;;36.03;27.28;98083.91;5349402;26;20109;-79
2022/06/13 05:00:47;;;;;;;7.82;2.87;;;;;;;36.18;27.41;98076.28;5349057;26;20135;-79
2022/06/13 05:03:21;;;;;;;7.97;3.30;;;;;;;36.08;27.09;98078.69;5349324;26;20123;-79
2022/06/13 05:05:53;;;;;;;5.43;2.87;;;;;;;35.39;27.73;98078.06;5369368;26;20104;-79
2022/06/13 05:08:32;;;;;;;6.82;2.90;;;;;;;35.55;28.12;98073.97;5348859;26;20103;-79
2022/06/13 05:11:17;;;;;;;6.68;3.00;;;;;;;35.84;27.26;98075.06;5369242;26;20055;-79
2022/06/13 05:13:45;;;;;;;6.20;2.90;;;;;;;35.92;27.34;98078.25;5369211;26;20079;-79
2022/06/13 05:16:30;;;;;;;8.20;3.45;;;;;;;36.75;26.74;98076.62;5368831;26;20540;-79
2022/06/13 05:19:09;;;;;;;6.18;3.03;;;;;;;37.58;25.92;98065.63;5369039;26;20052;-80
2022/06/13 05:21:58;;;;;;;7.05;3.10;;;;;;;38.02;24.87;98070.53;5368782;26;20425;-80
2022/06/13 05:24:32;;;;;;;5.12;2.62;;;;;;;38.52;24.72;98072.53;5369185;26;20104;-79
2022/06/13 05:27:06;;;;;;;7.75;3.40;;;;;;;38.43;24.33;98074.78;5350233;26;20051;-80
2022/06/13 05:29:34;;;;;;;8.15;3.37;;;;;;;38.49;24.82;98077.31;5368337;26;20104;-78
2022/06/13 05:32:02;;;;;;;7.20;3.37;;;;;;;37.05;25.73;98072.00;5369109;26;20063;-78
2022/06/13 05:34:37;;;;;;;6.22;3.40;;;;;;;36.77;27.10;98069.97;5349297;26;20086;-78
2022/06/13 05:37:04;;;;;;;4.28;2.80;;;;;;;37.27;27.05;98072.22;5349097;26;20052;-78
2022/06/13 05:39:32;;;;;;;5.78;3.12;;;;;;;38.20;25.17;98060.38;5324184;26;20116;-78
2022/06/13 05:42:06;;;;;;;5.30;2.80;;;;;;;37.08;26.94;98060.75;5322942;27;20343;-78
2022/06/13 05:44:36;;;;;;;5.93;3.03;;;;;;;37.69;26.35;98060.44;5324330;27;20056;-78
2022/06/13 05:47:03;;;;;;;5.60;2.90;;;;;;;37.97;25.54;98063.19;5324381;26;20399;-80
2022/06/13 05:49:30;;;;;;;7.12;2.75;;;;;;;37.68;26.27;98061.50;5323696;26;20100;-82
2022/06/13 05:51:57;;;;;;;6.47;2.83;;;;;;;37.33;27.07;98063.25;5323141;27;20462;-81
2022/06/13 05:54:24;;;;;;;4.00;2.78;;;;;;;36.86;27.44;98058.91;5324568;26;20052;-81
2022/06/13 05:56:51;;;;;;;9.30;3.10;;;;;;;37.30;27.69;98066.38;5323993;27;20053;-81
2022/06/13 05:59:18;;;;;;;5.47;3.00;;;;;;;37.58;27.29;98065.63;5324035;26;20055;-81
2022/06/13 06:01:45;;;;;;;6.30;3.10;;;;;;;36.49;28.09;98056.41;5324262;26;20111;-81
2022/06/13 06:04:12;;;;;;;4.70;2.90;;;;;;;36.68;27.61;98051.72;5323872;27;20053;-81
2022/06/13 06:06:39;;;;;;;6.82;3.15;;;;;;;36.59;28.61;98059.34;5324357;26;20045;-81
2022/06/13 06:09:06;;;;;;;7.60;3.05;;;;;;;36.54;28.15;98058.37;5323979;26;20198;-81
2022/06/13 06:11:34;;;;;;;6.15;2.90;;;;;;;36.15;29.35;98058.72;5323961;26;20411;-82
2022/06/13 06:14:00;;;;;;;6.45;3.03;;;;;;;35.50;29.79;98055.03;5324433;26;20128;-82
2022/06/13 06:16:29;;;;;;;5.80;3.12;;;;;;;35.63;29.16;98057.56;5324318;26;20052;-82
2022/06/13 06:18:56;;;;;;;5.22;2.80;;;;;;;35.02;30.30;98064.59;5323698;26;20044;-82
2022/06/13 06:21:23;;;;;;;5.90;3.28;;;;;;;34.27;32.04;98068.28;5324397;27;20070;-82
2022/06/13 06:23:50;;;;;;;5.90;3.10;;;;;;;35.22;30.24;98072.44;5326454;26;20074;-80
2022/06/13 06:26:23;;;;;;;7.00;3.40;;;;;;;34.64;31.27;98075.41;5326575;27;20053;-79
2022/06/13 06:28:50;;;;;;;8.38;3.67;;;;;;;34.68;32.21;98071.28;5326276;26;20112;-80
2022/06/13 06:31:18;;;;;;;6.05;3.42;;;;;;;34.25;33.11;98071.16;5329372;27;20080;-81
2022/06/13 06:33:46;;;;;;;9.05;3.45;;;;;;;34.19;33.47;98063.97;5327240;26;20801;-80
2022/06/13 06:36:13;;;;;;;5.87;3.20;;;;;;;34.64;32.64;98059.34;5325684;26;20414;-81
2022/06/13 06:38:40;;;;;;;7.37;3.40;;;;;;;35.10;32.51;98052.78;5304357;27;20460;-81
2022/06/13 06:41:07;;;;;;;6.55;3.00;;;;;;;35.52;31.16;98052.97;5324612;26;20121;-81
2022/06/13 06:43:34;;;;;;;5.80;2.97;;;;;;;36.28;30.00;98065.78;5329463;26;20140;-80
2022/06/13 06:46:01;;;;;;;6.07;3.22;;;;;;;36.01;30.11;98053.78;5327528;26;20120;-80
2022/06/13 06:48:29;;;;;;;8.63;3.53;;;;;;;35.99;29.59;98061.25;5324154;26;20044;-80
2022/06/13 06:50:56;;;;;;;7.28;3.30;;;;;;;35.92;29.47;98055.97;5324212;26;20120;-80
2022/06/13 06:53:25;;;;;;;7.40;3.35;;;;;;;35.85;29.39;98050.66;5322089;27;20082;-81
2022/06/13 07:01:25;;;;;;;7.45;3.12;;;;;;;34.55;27.98;98054.47;5323883;27;20669;-81
2022/06/13 07:03:52;;;;;;;5.68;2.92;;;;;;;34.34;30.08;98061.00;5322644;27;20068;-80
2022/06/13 07:06:19;;;;;;;5.62;3.00;;;;;;;34.62;28.33;98060.59;5323788;26;20131;-80
2022/06/13 07:08:46;;;;;;;4.25;2.60;;;;;;;34.63;28.61;98056.87;5323935;26;20068;-80
2022/06/13 07:12:06;;;;;;;5.47;2.90;;;;;;;34.68;28.14;98070.47;5324132;26;20079;-80
2022/06/13 07:14:08;;;;;;;7.00;2.95;;;;;;;33.96;28.98;98064.53;5319391;26;20053;-80
2022/06/13 07:16:35;;;;;;;6.93;3.00;;;;;;;33.77;29.26;98068.91;5322724;27;20064;-80
2022/06/13 07:19:02;;;;;;;5.80;3.15;;;;;;;33.64;30.11;98063.63;5323818;26;20111;-80
2022/06/13 07:21:29;;;;;;;5.75;3.17;;;;;;;33.41;29.17;98064.13;5323922;26;20312;-81
2022/06/13 07:23:56;;;;;;;6.55;3.28;;;;;;;34.09;29.63;98069.81;5324022;26;20074;-81
2022/06/13 07:26:23;;;;;;;5.85;2.83;;;;;;;34.03;30.69;98070.69;5324232;26;20048;-81
2022/06/13 07:28:54;;;;;;;6.32;2.87;;;;;;;34.38;29.33;98070.28;5323551;26;20053;-80
2022/06/13 07:31:25;;;;;;;5.43;2.70;;;;;;;34.23;29.32;98070.53;5324033;26;20460;-80
2022/06/13 07:33:52;;;;;;;7.30;3.30;;;;;;;33.87;28.92;98068.50;5323491;27;20068;-79
2022/06/13 07:36:19;;;;;;;7.15;3.10;;;;;;;33.23;30.08;98075.44;5323473;26;20392;-79
2022/06/13 07:38:48;;;;;;;5.72;3.08;;;;;;;33.22;30.68;98081.84;5330740;26;20071;-79
2022/06/13 07:41:18;;;;;;;6.12;3.20;;;;;;;33.15;29.78;98075.66;5345560;26;20135;-79
2022/06/13 07:43:45;;;;;;;5.32;3.12;;;;;;;33.64;31.09;98075.16;5345944;26;20111;-79
2022/06/13 07:46:13;;;;;;;6.00;3.03;;;;;;;32.92;30.22;98080.66;5325945;26;20053;-79
2022/06/13 07:48:40;;;;;;;6.45;3.25;;;;;;;33.21;30.03;98077.53;5345287;26;20044;-79
2022/06/13 07:51:09;;;;;;;8.23;3.22;;;;;;;32.89;30.01;98073.06;5346362;26;20070;-79
2022/06/13 07:53:36;;;;;;;6.40;2.95;;;;;;;32.26;31.56;98075.22;5346285;26;20070;-79
2022/06/13 07:56:24;;;;;;;;;;;;;;;32.42;31.02;98072.19;5345819;26;20048;-79
2022/06/13 07:58:52;;;;;;;5.93;3.03;;;;;;;32.87;30.54;98078.59;5345772;26;19968;-80
2022/06/13 08:01:20;;;;;;;7.43;3.30;;;;;;;33.06;31.37;98080.41;5346209;26;20120;-79
2022/06/13 08:03:47;;;;;;;5.80;3.15;;;;;;;33.41;31.44;98077.50;5345693;26;20056;-78
2022/06/13 08:06:15;;;;;;;5.55;3.42;;;;;;;32.95;31.55;98077.56;5346008;26;20068;-78
2022/06/13 08:08:45;;;;;;;8.38;3.40;;;;;;;33.18;31.53;98071.75;5345876;26;20064;-78
2022/06/13 08:11:30;;;;;;;5.87;3.20;;;;;;;33.26;31.61;98075.03;5345747;26;20091;-79
2022/06/13 08:13:58;;;;;;;6.10;3.35;;;;;;;33.25;30.33;98072.56;5346166;26;20119;-76
2022/06/13 08:16:25;;;;;;;6.18;3.00;;;;;;;33.25;30.10;98075.25;5345738;26;20096;-76
2022/06/13 08:18:53;;;;;;;7.82;3.25;;;;;;;33.42;30.82;98065.78;5345827;26;20071;-77
2022/06/13 08:21:21;;;;;;;6.82;3.20;;;;;;;33.76;30.17;98067.28;5346029;26;20447;-77
2022/06/13 08:23:48;;;;;;;5.20;3.10;;;;;;;33.58;30.61;98070.63;5345626;26;20465;-77
2022/06/13 08:26:15;;;;;;;6.57;3.20;;;;;;;33.92;29.92;98061.47;5345965;26;20134;-77
2022/06/13 08:28:42;;;;;;;7.87;3.10;;;;;;;34.12;29.28;98077.41;5345709;26;20115;-77
2022/06/13 08:31:11;;;;;;;7.25;3.22;;;;;;;33.70;30.11;98068.13;5345436;26;20080;-77
2022/06/13 08:33:39;;;;;;;5.03;2.95;;;;;;;33.88;30.25;98068.28;5326215;26;20060;-77
2022/06/13 08:36:07;;;;;;;7.35;3.00;;;;;;;33.86;29.34;98070.31;5345943;26;20163;-77
2022/06/13 08:38:34;;;;;;;4.80;2.95;;;;;;;34.20;28.62;98069.12;5344835;26;20062;-77
2022/06/13 08:41:10;;;;;;;6.37;2.95;;;;;;;34.30;29.53;98073.19;5345709;26;20076;-76
2022/06/13 08:44:00;;;;;;;5.37;2.92;;;;;;;33.75;28.88;98062.16;5345243;26;20111;-76
2022/06/13 08:47:00;;;;;;;5.07;3.10;;;;;;;33.90;28.54;98057.34;5345334;26;20059;-76
2022/06/13 08:49:27;;;;;;;6.45;3.03;;;;;;;33.72;27.50;98063.41;5325732;26;20084;-76
2022/06/13 08:52:18;;;;;;;5.62;2.87;;;;;;;33.71;28.99;98061.75;5345411;26;20101;-76
2022/06/13 08:54:53;;;;;;;6.90;3.50;;;;;;;33.93;29.54;98056.94;5345952;26;20056;-76
2022/06/13 08:57:24;;;;;;;7.43;3.30;;;;;;;34.77;27.35;98053.91;5326081;26;20406;-77
2022/06/13 09:00:03;;;;;;;5.12;2.80;;;;;;;35.01;26.47;98052.25;5325342;26;20136;-77
2022/06/13 09:02:37;;;;;;;5.72;3.15;;;;;;;35.68;25.42;98040.78;5326800;26;20068;-77
2022/06/13 09:05:15;;;;;;;5.65;2.95;;;;;;;35.58;26.95;98050.19;5345766;26;20060;-77
2022/06/13 09:08:07;;;;;;;6.00;2.80;;;;;;;35.29;26.30;98040.19;5345260;26;20056;-77
2022/06/13 09:10:37;;;;;;;10.68;2.92;;;;;;;35.26;26.65;98046.00;5345480;26;20064;-77
2022/06/13 09:13:18;;;;;;;5.18;3.30;;;;;;;35.15;26.54;98049.41;5345209;26;20112;-77
2022/06/13 09:15:48;;;;;;;6.22;2.90;;;;;;;34.98;25.80;98044.63;5345635;26;20450;-76
2022/06/13 09:18:30;;;;;;;5.85;2.70;;;;;;;36.32;24.26;98042.78;5346551;26;20170;-77
2022/06/13 09:21:15;;;;;;;6.05;3.30;;;;;;;35.43;26.78;98032.84;5326773;26;20135;-80
2022/06/13 09:24:01;;;;;;;6.18;3.50;;;;;;;34.85;26.85;98043.91;5345845;26;20075;-79
2022/06/13 09:26:35;;;;;;;7.20;2.80;;;;;;;34.90;25.50;98031.53;5346017;26;20076;-82
2022/06/13 09:29:14;;;;;;;6.00;2.92;;;;;;;34.94;26.61;98038.06;5346578;26;20068;-82
2022/06/13 09:31:46;;;;;;;8.30;3.17;;;;;;;34.63;26.85;98041.63;5327021;26;20390;-81
2022/06/13 09:34:27;;;;;;;6.15;3.30;;;;;;;33.93;27.24;98032.84;5346421;26;20075;-82
2022/06/13 09:37:04;;;;;;;6.93;3.40;;;;;;;33.19;30.01;98027.97;5326711;26;20568;-82
2022/06/13 09:39:31;;;;;;;;;;;;;;;32.87;31.99;98025.16;5322554;26;20418;-82
2022/06/13 09:41:57;;;;;;;7.53;3.70;;;;;;;33.25;33.54;98027.94;5323338;26;20317;-82
2022/06/13 09:44:33;;;;;;;7.00;3.70;;;;;;;32.97;32.42;98022.88;5324370;26;20116;-81
2022/06/13 09:47:12;;;;;;;7.05;4.25;;;;;;;33.82;32.01;98028.16;5323317;27;20128;-81
2022/06/13 09:49:50;;;;;;;7.18;4.20;;;;;;;32.34;34.53;98027.00;5324038;26;20112;-81
2022/06/13 09:52:40;;;;;;;8.23;4.10;;;;;;;31.72;35.79;98012.06;5324508;26;20116;-82
2022/06/13 09:55:42;;;;;;;8.20;4.30;;;;;;;32.34;35.64;98017.16;5324256;26;20080;-82
2022/06/13 09:58:50;;;;;;;6.85;4.20;;;;;;;32.57;37.46;98018.59;5324291;26;20075;-84
2022/06/13 10:01:32;;;;;;;8.73;4.40;;;;;;;32.82;36.11;98027.59;5277706;27;20170;-81
2022/06/13 10:04:57;;;;;;;10.50;4.37;;;;;;;32.60;36.69;98015.50;5259780;27;20457;-82
2022/06/13 10:07:39;;;;;;;6.97;4.07;;;;;;;32.96;37.07;98021.22;5263808;27;20375;-81
2022/06/13 10:10:37;;;;;;;6.95;4.10;;;;;;;33.44;36.15;98023.59;5323760;26;20108;-80
2022/06/13 10:13:52;;;;;;;6.60;4.07;;;;;;;33.43;35.02;98018.47;5324366;26;20065;-81
2022/06/13 10:16:44;;;;;;;9.73;4.35;;;;;;;33.31;34.25;98015.59;5277598;27;20065;-80
2022/06/13 10:19:49;;;;;;;9.98;3.85;;;;;;;33.33;34.08;98021.53;5324026;26;20077;-80
2022/06/13 10:22:42;;;;;;;7.90;3.70;;;;;;;33.28;34.25;98021.34;5324382;26;20104;-80
2022/06/13 10:25:14;;;;;;;7.93;4.40;;;;;;;33.50;35.00;98020.06;5324229;26;20049;-81
2022/06/13 10:27:41;;;;;;;8.30;4.47;;;;;;;32.47;35.56;98025.16;5324011;26;20103;-81
2022/06/13 10:30:39;;;;;;;7.85;4.40;;;;;;;32.35;36.34;98023.31;5323794;26;20340;-80
2022/06/13 10:33:32;;;;;;;8.63;4.07;;;;;;;32.22;36.55;98016.06;5324502;26;20455;-81
2022/06/13 10:36:40;;;;;;;8.55;4.10;;;;;;;33.12;36.41;98017.28;5322180;27;20064;-80
2022/06/13 10:39:12;;;;;;;9.98;3.97;;;;;;;33.84;33.47;98010.84;5304020;26;20104;-81
2022/06/13 10:41:44;;;;;;;8.25;4.12;;;;;;;33.99;31.91;98015.91;5346808;26;20699;-81
2022/06/13 10:44:14;;;;;;;6.12;3.58;;;;;;;33.75;32.53;98001.41;5346399;26;20131;-81
2022/06/13 10:46:53;;;;;;;7.15;3.50;;;;;;;33.99;31.17;97991.81;5347849;26;20750;-81
2022/06/13 10:49:55;;;;;;;5.85;3.10;;;;;;;34.24;31.59;97997.19;5346185;26;20074;-81
2022/06/13 10:52:26;;;;;;;6.65;3.35;;;;;;;33.62;29.27;97986.28;5342246;26;20104;-81
2022/06/13 10:55:01;;;;;;;5.93;3.50;;;;;;;33.46;31.55;97983.25;5326961;26;20486;-81
2022/06/13 10:57:33;;;;;;;8.48;3.72;;;;;;;33.91;29.93;97989.41;5326696;26;20454;-81
2022/06/13 11:00:17;;;;;;;4.75;3.10;;;;;;;34.15;29.91;97994.00;5326763;26;20111;-80
2022/06/13 11:02:45;;;;;;;5.93;3.45;;;;;;;34.46;28.00;97992.34;5346222;26;20099;-80
2022/06/13 11:05:18;;;;;;;7.35;3.20;;;;;;;34.23;29.01;97993.69;5346139;26;20075;-81
2022/06/13 11:07:52;;;;;;;4.50;2.97;;;;;;;34.49;29.02;97991.91;5346487;26;20120;-81
2022/06/13 11:10:32;;;;;;;6.07;3.10;;;;;;;35.59;27.93;97975.88;5346255;26;20064;-80
2022/06/13 11:13:00;;;;;;;5.68;2.95;;;;;;;35.03;26.83;97977.78;5326647;26;20064;-80
2022/06/13 11:24:13;;;;;;;4.47;2.78;;;;;;;34.09;26.97;97965.41;5346563;26;20100;-80
2022/06/13 11:29:28;;;;;;;5.32;3.08;;;;;;;34.06;28.75;97957.81;5346323;26;20056;-80
2022/06/13 11:31:57;;;;;;;7.07;3.30;;;;;;;34.12;29.92;97959.59;5346614;26;20096;-81
2022/06/13 11:34:27;;;;;;;5.45;3.05;;;;;;;33.79;31.02;97957.13;5345943;26;20060;-81
2022/06/13 11:36:59;;;;;;;5.43;2.90;;;;;;;33.53;29.75;97958.13;5326533;26;20123;-81
2022/06/13 11:39:39;;;;;;;5.70;2.97;;;;;;;34.08;29.04;97963.75;5345398;26;20052;-82
2022/06/13 11:42:27;;;;;;;6.47;3.25;;;;;;;34.22;29.18;97954.56;5346254;26;20051;-82
2022/06/13 11:45:07;;;;;;;6.43;3.10;;;;;;;33.55;32.92;97961.41;5327642;26;20060;-82
2022/06/13 11:47:45;;;;;;;6.97;3.20;;;;;;;32.86;31.61;97955.88;5326256;26;20549;-82
2022/06/13 11:50:16;;;;;;;6.78;3.53;;;;;;;33.78;31.55;97957.34;5346298;26;20076;-82
2022/06/13 11:55:31;;;;;;;7.62;3.22;;;;;;;33.28;33.28;97955.31;5346192;26;20057;-82
2022/06/13 11:57:59;;;;;;;5.53;3.10;;;;;;;33.59;32.55;97967.13;5346332;26;20132;-82
2022/06/13 12:00:34;;;;;;;5.62;3.30;;;;;;;32.68;34.28;97957.34;5346364;26;20065;-81
2022/06/13 12:03:21;;;;;;;5.95;3.20;;;;;;;33.33;32.98;97955.50;5346432;26;20071;-82
2022/06/13 12:05:58;;;;;;;5.47;3.17;;;;;;;34.15;32.65;97963.72;5346909;26;20040;-82
2022/06/13 12:08:28;;;;;;;6.30;3.50;;;;;;;33.85;34.12;97964.31;5345906;26;20450;-82
2022/06/13 12:11:05;;;;;;;6.07;3.30;;;;;;;33.85;33.66;97964.31;5344777;26;20072;-82
2022/06/13 12:13:46;;;;;;;6.60;3.25;;;;;;;33.77;33.05;97961.06;5323737;26;20116;-83
2022/06/13 12:16:28;;;;;;;5.85;3.10;;;;;;;33.59;33.22;97965.28;5344085;26;20531;-82
2022/06/13 12:19:18;;;;;;;5.78;2.90;;;;;;;33.55;35.73;97964.06;5345447;26;20067;-82
2022/06/13 12:22:07;;;;;;;6.32;3.10;;;;;;;33.23;34.81;97965.03;5346189;26;20071;-82
2022/06/13 12:24:46;;;;;;;6.55;2.70;;;;;;;33.30;33.16;97958.63;5346155;26;20096;-81
2022/06/13 12:27:38;;;;;;;5.43;2.60;;;;;;;33.67;31.55;97970.38;5346141;26;20376;-81
2022/06/13 12:30:17;;;;;;;4.05;2.30;;;;;;;32.51;32.90;97959.63;5307710;26;20111;-81
2022/06/13 12:32:52;;;;;;;4.45;2.50;;;;;;;32.79;32.02;97959.37;5345829;26;20066;-81
2022/06/13 12:35:58;;;;;;;5.18;2.40;;;;;;;33.89;30.08;97957.50;5345973;26;20120;-81
2022/06/13 12:38:47;;;;;;;4.55;2.55;;;;;;;33.68;31.62;97960.50;5345827;26;20323;-82